createdAt,value
2023-02-06T00:00:27.378Z,-2.64
2023-02-06T00:02:42.980Z,-2.67
2023-02-06T00:04:40.362Z,-2.59
2023-02-06T00:06:38.558Z,-2.59
2023-02-06T00:08:34.452Z,-2.54
2023-02-06T00:10:30.091Z,-2.53
2023-02-06T00:12:26.823Z,-2.56
2023-02-06T00:14:22.626Z,-2.55
2023-02-06T00:16:20.520Z,-2.64
2023-02-06T00:18:15.658Z,-2.63
2023-02-06T00:20:16.826Z,-2.64
2023-02-06T00:22:19.550Z,-2.61
2023-02-06T00:24:14.956Z,-2.57
2023-02-06T00:26:10.841Z,-2.55
2023-02-06T00:28:06.267Z,-2.48
2023-02-06T00:30:04.911Z,-2.47
2023-02-06T00:32:01.127Z,-2.46
2023-02-06T00:33:56.220Z,-2.44
2023-02-06T00:35:51.631Z,-2.52
2023-02-06T00:37:49.307Z,-2.53
2023-02-06T00:39:46.599Z,-2.59
2023-02-06T00:41:41.590Z,-2.68
2023-02-06T00:43:40.565Z,-2.70
2023-02-06T00:45:35.819Z,-2.73
2023-02-06T00:47:31.197Z,-2.78
2023-02-06T00:49:26.449Z,-2.77
2023-02-06T00:51:21.509Z,-2.80
2023-02-06T00:53:20.218Z,-2.71
2023-02-06T00:55:18.149Z,-2.77
2023-02-06T00:57:15.382Z,-2.81
2023-02-06T00:59:10.444Z,-2.83
2023-02-06T01:01:06.328Z,-2.88
2023-02-06T01:03:03.326Z,-2.92
2023-02-06T01:04:58.442Z,-2.88
2023-02-06T01:06:55.381Z,-2.86
2023-02-06T01:08:54.176Z,-2.94
2023-02-06T01:10:50.555Z,-2.94
2023-02-06T01:12:47.584Z,-2.79
2023-02-06T01:14:45.304Z,-2.75
2023-02-06T01:16:40.386Z,-2.76
2023-02-06T01:18:46.683Z,-2.78
2023-02-06T01:20:42.704Z,-2.82
2023-02-06T01:22:44.663Z,-2.76
2023-02-06T01:24:45.577Z,-2.72
2023-02-06T01:26:46.400Z,-2.76
2023-02-06T01:28:43.166Z,-2.74
2023-02-06T01:30:44.634Z,-2.73
2023-02-06T01:32:44.151Z,-2.86
2023-02-06T01:34:39.514Z,-2.91
2023-02-06T01:36:35.842Z,-2.93
2023-02-06T01:38:31.115Z,-2.95
2023-02-06T01:40:28.853Z,-2.97
2023-02-06T01:42:25.963Z,-2.95
2023-02-06T01:44:34.010Z,-3.04
2023-02-06T01:46:41.604Z,-3.07
2023-02-06T01:48:41.024Z,-3.04
2023-02-06T01:50:38.518Z,-3.06
2023-02-06T01:52:39.839Z,-3.05
2023-02-06T01:54:36.432Z,-3.05
2023-02-06T01:56:38.724Z,-2.98
2023-02-06T01:58:39.090Z,-3.05
2023-02-06T02:00:40.354Z,-3.15
2023-02-06T02:02:40.206Z,-3.26
2023-02-06T02:04:36.589Z,-3.28
2023-02-06T02:06:32.579Z,-3.25
2023-02-06T02:08:36.469Z,-3.25
2023-02-06T02:10:33.044Z,-3.25
2023-02-06T02:12:31.424Z,-3.23
2023-02-06T02:14:26.661Z,-3.28
2023-02-06T02:16:30.685Z,-3.34
2023-02-06T02:18:40.485Z,-3.36
2023-02-06T02:20:53.828Z,-3.30
2023-02-06T02:23:06.102Z,-3.34
2023-02-06T02:25:30.510Z,-3.42
2023-02-06T02:27:55.084Z,-3.43
2023-02-06T02:30:26.195Z,-3.41
2023-02-06T02:32:47.137Z,-3.43
2023-02-06T02:35:08.056Z,-3.47
2023-02-06T02:37:13.009Z,-3.45
2023-02-06T02:39:18.090Z,-3.43
2023-02-06T02:41:18.518Z,-3.44
2023-02-06T02:43:20.792Z,-3.48
2023-02-06T02:45:22.059Z,-3.54
2023-02-06T02:47:20.708Z,-3.55
2023-02-06T02:49:18.536Z,-3.50
2023-02-06T02:51:17.016Z,-3.60
2023-02-06T02:53:13.216Z,-3.66
2023-02-06T02:55:18.462Z,-3.60
2023-02-06T02:57:20.311Z,-3.57
2023-02-06T02:59:23.748Z,-3.60
2023-02-06T03:01:23.962Z,-3.55
2023-02-06T03:03:23.406Z,-3.50
2023-02-06T03:05:24.353Z,-3.60
2023-02-06T03:07:35.391Z,-3.56
2023-02-06T03:09:43.732Z,-3.56
2023-02-06T03:11:44.453Z,-3.58
2023-02-06T03:13:45.212Z,-3.56
2023-02-06T03:15:58.040Z,-3.59
2023-02-06T03:18:01.625Z,-3.55
2023-02-06T03:20:00.026Z,-3.52
2023-02-06T03:22:05.026Z,-3.49
2023-02-06T03:24:05.906Z,-3.42
2023-02-06T03:26:05.834Z,-3.39
2023-02-06T03:28:02.076Z,-3.36
2023-02-06T03:29:58.972Z,-3.44
2023-02-06T03:31:58.094Z,-3.45
2023-02-06T03:34:01.729Z,-3.35
2023-02-06T03:35:58.054Z,-3.34
2023-02-06T03:37:53.533Z,-3.33
2023-02-06T03:39:51.349Z,-3.50
2023-02-06T03:41:48.375Z,-3.48
2023-02-06T03:43:46.176Z,-3.46
2023-02-06T03:45:46.322Z,-3.44
2023-02-06T03:47:42.873Z,-3.37
2023-02-06T03:49:42.036Z,-3.37
2023-02-06T03:51:43.076Z,-3.36
2023-02-06T03:53:40.668Z,-3.40
2023-02-06T03:55:41.549Z,-3.35
2023-02-06T03:57:38.542Z,-3.29
2023-02-06T03:59:34.517Z,-3.29
2023-02-06T04:01:30.483Z,-3.27
2023-02-06T04:03:25.874Z,-3.22
2023-02-06T04:05:22.316Z,-3.19
2023-02-06T04:07:21.537Z,-3.19
2023-02-06T04:09:16.770Z,-3.21
2023-02-06T04:11:14.977Z,-3.15
2023-02-06T04:13:10.169Z,-3.15
2023-02-06T04:15:06.227Z,-3.25
2023-02-06T04:17:01.383Z,-3.24
2023-02-06T04:18:56.991Z,-3.22
2023-02-06T04:20:52.517Z,-3.24
2023-02-06T04:22:48.363Z,-3.23
2023-02-06T04:24:43.913Z,-3.15
2023-02-06T04:26:42.095Z,-3.11
2023-02-06T04:28:37.388Z,-3.06
2023-02-06T04:30:35.491Z,-3.06
2023-02-06T04:32:30.794Z,-3.05
2023-02-06T04:34:26.634Z,-3.06
2023-02-06T04:36:21.997Z,-3.06
2023-02-06T04:38:17.962Z,-3.07
2023-02-06T04:40:14.880Z,-3.03
2023-02-06T04:42:13.077Z,-3.05
2023-02-06T04:44:08.484Z,-3.11
2023-02-06T04:46:04.224Z,-3.17
2023-02-06T04:47:59.643Z,-3.09
2023-02-06T04:49:55.214Z,-3.02
2023-02-06T04:51:50.448Z,-2.98
2023-02-06T04:53:47.152Z,-2.97
2023-02-06T04:55:42.391Z,-2.91
2023-02-06T04:57:41.100Z,-2.96
2023-02-06T04:59:36.394Z,-2.95
2023-02-06T05:01:32.031Z,-2.93
2023-02-06T05:03:29.578Z,-2.91
2023-02-06T05:05:25.155Z,-3.01
2023-02-06T05:07:20.529Z,-3.02
2023-02-06T05:09:16.369Z,-2.93
2023-02-06T05:11:11.657Z,-2.94
2023-02-06T05:13:09.582Z,-2.92
2023-02-06T05:15:04.610Z,-3.06
2023-02-06T05:16:59.953Z,-2.96
2023-02-06T05:18:57.112Z,-2.88
2023-02-06T05:20:52.360Z,-2.84
2023-02-06T05:22:47.385Z,-2.87
2023-02-06T05:24:42.659Z,-2.91
2023-02-06T05:26:37.629Z,-2.88
2023-02-06T05:28:36.025Z,-2.82
2023-02-06T05:30:31.644Z,-2.71
2023-02-06T05:32:27.310Z,-2.77
2023-02-06T05:34:22.225Z,-2.92
2023-02-06T05:36:17.637Z,-2.87
2023-02-06T05:38:12.505Z,-2.82
2023-02-06T05:40:08.686Z,-2.81
2023-02-06T05:42:03.728Z,-2.85
2023-02-06T05:44:01.641Z,-2.88
2023-02-06T05:45:56.564Z,-2.85
2023-02-06T05:47:52.256Z,-2.85
2023-02-06T05:49:48.325Z,-2.85
2023-02-06T05:51:43.695Z,-2.85
2023-02-06T05:53:38.984Z,-2.84
2023-02-06T05:55:34.592Z,-2.87
2023-02-06T05:57:29.736Z,-2.78
2023-02-06T05:59:27.667Z,-2.83
2023-02-06T06:01:22.603Z,-2.85
2023-02-06T06:03:17.852Z,-2.84
2023-02-06T06:05:12.890Z,-2.83
2023-02-06T06:07:08.320Z,-2.83
2023-02-06T06:09:03.976Z,-2.85
2023-02-06T06:11:01.761Z,-2.79
2023-02-06T06:12:57.118Z,-2.78
2023-02-06T06:14:54.991Z,-2.68
2023-02-06T06:16:49.963Z,-2.57
2023-02-06T06:18:45.399Z,-2.51
2023-02-06T06:20:40.436Z,-2.45
2023-02-06T06:22:35.794Z,-2.39
2023-02-06T06:24:30.754Z,-2.42
2023-02-06T06:26:26.238Z,-2.53
2023-02-06T06:28:21.324Z,-2.59
2023-02-06T06:30:19.729Z,-2.58
2023-02-06T06:32:14.828Z,-2.64
2023-02-06T06:34:10.172Z,-2.68
2023-02-06T06:36:05.220Z,-2.74
2023-02-06T06:38:00.229Z,-2.79
2023-02-06T06:39:55.472Z,-2.68
2023-02-06T06:41:50.438Z,-2.60
2023-02-06T06:43:45.882Z,-2.57
2023-02-06T06:45:43.478Z,-2.51
2023-02-06T06:47:39.138Z,-2.47
2023-02-06T06:49:34.136Z,-2.42
2023-02-06T06:51:30.160Z,-2.44
2023-02-06T06:53:25.682Z,-2.48
2023-02-06T06:55:21.471Z,-2.49
2023-02-06T06:57:16.410Z,-2.49
2023-02-06T06:59:11.684Z,-2.50
2023-02-06T07:01:09.381Z,-2.46
2023-02-06T07:03:04.731Z,-2.41
2023-02-06T07:05:00.393Z,-2.43
2023-02-06T07:06:55.769Z,-2.42
2023-02-06T07:08:50.652Z,-2.32
2023-02-06T07:10:46.025Z,-2.35
2023-02-06T07:12:41.459Z,-2.38
2023-02-06T07:14:36.631Z,-2.50
2023-02-06T07:16:34.852Z,-2.47
2023-02-06T07:18:29.882Z,-2.38
2023-02-06T07:20:25.178Z,-2.40
2023-02-06T07:22:20.337Z,-2.48
2023-02-06T07:24:15.677Z,-2.43
2023-02-06T07:26:10.931Z,-2.39
2023-02-06T07:28:13.087Z,-2.39
2023-02-06T07:30:37.336Z,-2.36
2023-02-06T07:32:41.646Z,-2.30
2023-02-06T07:34:38.100Z,-2.32
2023-02-06T07:36:33.511Z,-2.35
2023-02-06T07:38:30.835Z,-2.37
2023-02-06T07:40:44.110Z,-2.53
2023-02-06T07:42:39.914Z,-2.62
2023-02-06T07:44:37.632Z,-2.59
2023-02-06T07:46:33.205Z,-2.63
2023-02-06T07:48:31.266Z,-2.66
2023-02-06T07:50:26.317Z,-2.65
2023-02-06T07:52:22.419Z,-2.58
2023-02-06T07:54:18.956Z,-2.58
2023-02-06T07:56:17.817Z,-2.60
2023-02-06T07:58:13.460Z,-2.58
2023-02-06T08:00:10.676Z,-2.69
2023-02-06T08:02:05.705Z,-2.76
2023-02-06T08:04:04.044Z,-2.78
2023-02-06T08:05:59.148Z,-2.78
2023-02-06T08:07:54.386Z,-2.66
2023-02-06T08:09:59.172Z,-2.53
2023-02-06T08:11:56.319Z,-2.47
2023-02-06T08:13:51.630Z,-2.44
2023-02-06T08:15:46.678Z,-2.41
2023-02-06T08:17:42.772Z,-2.35
2023-02-06T08:19:40.412Z,-2.23
2023-02-06T08:21:39.172Z,-2.14
2023-02-06T08:23:38.655Z,-2.10
2023-02-06T08:25:34.086Z,-1.99
2023-02-06T08:27:29.633Z,-1.98
2023-02-06T08:29:25.069Z,-1.98
2023-02-06T08:31:22.975Z,-2.02
2023-02-06T08:33:18.027Z,-2.04
2023-02-06T08:35:15.958Z,-2.01
2023-02-06T08:37:11.057Z,-2.01
2023-02-06T08:39:07.464Z,-1.90
2023-02-06T08:41:02.372Z,-1.86
2023-02-06T08:42:57.289Z,-1.83
2023-02-06T08:44:53.838Z,-1.86
2023-02-06T08:46:56.191Z,-1.82
2023-02-06T08:49:00.514Z,-1.77
2023-02-06T08:51:19.474Z,-1.71
2023-02-06T08:53:14.734Z,-1.68
2023-02-06T08:55:10.406Z,-1.61
2023-02-06T08:57:07.529Z,-1.57
2023-02-06T08:59:04.780Z,-1.56
2023-02-06T09:01:00.562Z,-1.60
2023-02-06T09:02:55.924Z,-1.53
2023-02-06T09:04:51.287Z,-1.43
2023-02-06T09:06:49.722Z,-1.53
2023-02-06T09:08:45.464Z,-1.56
2023-02-06T09:10:40.462Z,-1.50
2023-02-06T09:12:35.706Z,-1.47
2023-02-06T09:14:30.792Z,-1.33
2023-02-06T09:16:28.040Z,-1.38
2023-02-06T09:18:23.376Z,-1.34
2023-02-06T09:20:19.204Z,-1.20
2023-02-06T09:22:17.411Z,-1.22
2023-02-06T09:24:13.008Z,-1.17
2023-02-06T09:26:09.123Z,-1.18
2023-02-06T09:28:04.328Z,-1.12
2023-02-06T09:29:59.528Z,-1.10
2023-02-06T09:31:55.840Z,-1.06
2023-02-06T09:33:51.118Z,-1.01
2023-02-06T09:35:46.161Z,-1.02
2023-02-06T09:37:44.045Z,-0.96
2023-02-06T09:39:39.230Z,-0.93
2023-02-06T09:41:40.395Z,-0.89
2023-02-06T09:43:37.166Z,-0.85
2023-02-06T09:45:35.353Z,-0.77
2023-02-06T09:47:32.945Z,-0.76
2023-02-06T09:49:32.347Z,-0.70
2023-02-06T09:51:40.375Z,-0.62
2023-02-06T09:53:48.999Z,-0.56
2023-02-06T09:55:46.954Z,-0.59
2023-02-06T09:57:48.915Z,-0.59
2023-02-06T09:59:50.319Z,-0.57
2023-02-06T10:01:52.207Z,-0.54
2023-02-06T10:04:02.146Z,-0.51
2023-02-06T10:06:06.908Z,-0.46
2023-02-06T10:08:13.905Z,-0.43
2023-02-06T10:10:19.084Z,-0.42
2023-02-06T10:12:21.245Z,-0.42
2023-02-06T10:14:23.776Z,-0.42
2023-02-06T10:16:32.608Z,-0.49
2023-02-06T10:18:34.807Z,-0.47
2023-02-06T10:20:36.844Z,-0.43
2023-02-06T10:22:36.707Z,-0.40
2023-02-06T10:24:37.683Z,-0.42
2023-02-06T10:26:49.241Z,-0.36
2023-02-06T10:28:47.117Z,-0.34
2023-02-06T10:31:02.027Z,-0.41
2023-02-06T10:33:07.904Z,-0.38
2023-02-06T10:35:22.392Z,-0.35
2023-02-06T10:37:37.289Z,-0.28
2023-02-06T10:40:00.230Z,-0.34
2023-02-06T10:42:06.847Z,-0.32
2023-02-06T10:44:07.672Z,-0.28
2023-02-06T10:46:19.957Z,-0.23
2023-02-06T10:48:31.586Z,-0.16
2023-02-06T10:50:31.495Z,-0.11
2023-02-06T10:52:29.331Z,-0.16
2023-02-06T10:54:33.457Z,-0.15
2023-02-06T10:56:32.506Z,-0.13
2023-02-06T10:58:35.845Z,-0.21
2023-02-06T11:00:37.054Z,-0.20
2023-02-06T11:02:41.879Z,-0.17
2023-02-06T11:04:40.826Z,-0.23
2023-02-06T11:06:36.371Z,-0.10
2023-02-06T11:08:36.335Z,-0.12
2023-02-06T11:10:32.311Z,-0.12
2023-02-06T11:12:34.238Z,-0.19
2023-02-06T11:14:35.896Z,-0.15
2023-02-06T11:16:33.278Z,-0.18
2023-02-06T11:18:33.695Z,-0.23
2023-02-06T11:20:33.420Z,-0.23
2023-02-06T11:22:41.559Z,-0.16
2023-02-06T11:25:02.067Z,-0.11
2023-02-06T11:27:00.438Z,-0.15
2023-02-06T11:29:01.933Z,-0.02
2023-02-06T11:31:01.838Z,0.03
2023-02-06T11:33:04.652Z,0.10
2023-02-06T11:35:03.379Z,0.14
2023-02-06T11:37:06.368Z,0.15
2023-02-06T11:39:09.551Z,0.19
2023-02-06T11:41:09.874Z,0.20
2023-02-06T11:43:19.042Z,0.09
2023-02-06T11:45:27.660Z,0.11
2023-02-06T11:47:32.945Z,0.07
2023-02-06T11:49:30.948Z,0.19
2023-02-06T11:51:27.316Z,0.18
2023-02-06T11:53:22.635Z,0.31
2023-02-06T11:55:24.710Z,0.40
2023-02-06T11:57:23.772Z,0.42
2023-02-06T11:59:24.212Z,0.40
2023-02-06T12:01:22.698Z,0.54
2023-02-06T12:03:33.296Z,0.51
2023-02-06T12:05:33.518Z,0.51
2023-02-06T12:07:33.772Z,0.57
2023-02-06T12:09:29.267Z,0.53
2023-02-06T12:11:28.569Z,0.53
2023-02-06T12:13:28.435Z,0.57
2023-02-06T12:15:46.621Z,0.48
2023-02-06T12:18:29.117Z,0.43
2023-02-06T12:20:31.522Z,0.49
2023-02-06T12:23:06.066Z,0.57
2023-02-06T12:25:04.571Z,0.60
2023-02-06T12:27:03.450Z,0.65
2023-02-06T12:29:03.468Z,0.51
2023-02-06T12:31:03.567Z,0.56
2023-02-06T12:33:06.193Z,0.40
2023-02-06T12:35:03.619Z,0.52
2023-02-06T12:37:14.006Z,0.55
2023-02-06T12:39:19.974Z,0.59
2023-02-06T12:41:41.674Z,0.63
2023-02-06T12:43:39.772Z,0.67
2023-02-06T12:45:46.869Z,0.74
2023-02-06T12:47:49.275Z,0.80
2023-02-06T12:49:55.173Z,0.84
2023-02-06T12:51:57.250Z,0.89
2023-02-06T12:54:00.208Z,0.97
2023-02-06T12:56:00.645Z,0.98
2023-02-06T12:57:57.788Z,1.26
2023-02-06T13:00:15.725Z,1.25
2023-02-06T13:02:25.941Z,1.27
2023-02-06T13:04:23.631Z,1.30
2023-02-06T13:06:24.148Z,1.25
2023-02-06T13:08:22.485Z,1.24
2023-02-06T13:10:29.051Z,1.19
2023-02-06T13:12:26.355Z,1.24
2023-02-06T13:14:24.602Z,1.13
2023-02-06T13:16:19.877Z,1.20
2023-02-06T13:19:02.815Z,1.23
2023-02-06T13:21:20.087Z,1.26
2023-02-06T13:23:26.968Z,1.27
2023-02-06T13:25:56.463Z,1.26
2023-02-06T13:27:51.812Z,1.36
2023-02-06T13:29:48.404Z,1.48
2023-02-06T13:31:43.394Z,1.48
2023-02-06T13:33:44.802Z,1.45
2023-02-06T13:35:57.608Z,1.47
2023-02-06T13:37:54.383Z,1.49
2023-02-06T13:39:50.720Z,1.51
2023-02-06T13:41:48.565Z,1.51
2023-02-06T13:43:46.983Z,1.51
2023-02-06T13:45:47.076Z,1.51
2023-02-06T13:48:07.722Z,1.49
2023-02-06T13:50:38.196Z,1.50
2023-02-06T13:52:40.547Z,1.52
2023-02-06T13:54:53.172Z,1.56
2023-02-06T13:57:15.950Z,1.57
2023-02-06T13:59:19.150Z,1.49
2023-02-06T14:01:17.129Z,1.52
2023-02-06T14:03:21.259Z,1.54
2023-02-06T14:05:22.209Z,1.49
2023-02-06T14:07:43.882Z,1.49
2023-02-06T14:10:01.211Z,1.50
2023-02-06T14:12:24.044Z,1.53
2023-02-06T14:14:33.211Z,1.52
2023-02-06T14:16:40.029Z,1.57
2023-02-06T14:18:46.245Z,1.62
2023-02-06T14:20:52.713Z,1.69
2023-02-06T14:22:55.836Z,1.83
2023-02-06T14:25:08.733Z,1.89
2023-02-06T14:27:23.501Z,1.91
2023-02-06T14:29:31.301Z,1.97
2023-02-06T14:31:46.210Z,2.01
2023-02-06T14:33:57.247Z,1.99
2023-02-06T14:36:09.307Z,1.97
2023-02-06T14:38:25.933Z,1.99
2023-02-06T14:40:24.196Z,2.09
2023-02-06T14:42:25.456Z,2.18
2023-02-06T14:44:23.880Z,2.26
2023-02-06T14:46:22.382Z,2.43
2023-02-06T14:48:23.034Z,2.54
2023-02-06T14:50:25.047Z,2.71
2023-02-06T14:52:24.356Z,2.92
2023-02-06T14:54:32.930Z,2.98
2023-02-06T14:56:30.570Z,3.22
2023-02-06T14:58:32.044Z,3.33
2023-02-06T15:00:31.838Z,3.38
2023-02-06T15:02:30.977Z,3.50
2023-02-06T15:04:29.568Z,3.50
2023-02-06T15:06:37.760Z,3.63
2023-02-06T15:08:37.199Z,3.68
2023-02-06T15:10:34.442Z,3.66
2023-02-06T15:12:33.233Z,3.70
2023-02-06T15:14:35.940Z,3.74
2023-02-06T15:16:33.104Z,3.71
2023-02-06T15:18:31.313Z,3.71
2023-02-06T15:20:29.545Z,3.73
2023-02-06T15:22:28.328Z,3.67
2023-02-06T15:24:41.436Z,3.69
2023-02-06T15:26:47.863Z,3.59
2023-02-06T15:28:44.536Z,3.55
2023-02-06T15:30:45.592Z,3.55
2023-02-06T15:32:42.543Z,3.57
2023-02-06T15:34:40.958Z,3.56
2023-02-06T15:36:37.769Z,3.52
2023-02-06T15:38:37.300Z,3.54
2023-02-06T15:40:39.057Z,3.44
2023-02-06T15:42:34.832Z,3.38
2023-02-06T15:44:34.340Z,3.36
2023-02-06T15:46:34.249Z,3.23
2023-02-06T15:48:43.934Z,3.16
2023-02-06T15:50:41.881Z,2.98
2023-02-06T15:52:42.830Z,2.84
2023-02-06T15:54:40.317Z,2.78
2023-02-06T15:56:38.290Z,2.76
2023-02-06T15:58:34.825Z,2.77
2023-02-06T16:00:35.065Z,2.74
2023-02-06T16:02:38.617Z,2.68
2023-02-06T16:04:38.432Z,2.64
2023-02-06T16:06:33.904Z,2.55
2023-02-06T16:08:34.135Z,2.41
2023-02-06T16:10:40.005Z,2.22
2023-02-06T16:12:41.681Z,2.16
2023-02-06T16:14:41.146Z,2.27
2023-02-06T16:16:36.201Z,2.34
2023-02-06T16:18:37.956Z,2.32
2023-02-06T16:20:39.555Z,2.30
2023-02-06T16:22:39.235Z,2.26
2023-02-06T16:24:34.391Z,2.24
2023-02-06T16:26:32.311Z,2.19
2023-02-06T16:28:29.864Z,2.12
2023-02-06T16:30:29.633Z,2.11
2023-02-06T16:32:27.835Z,2.49
2023-02-06T16:34:37.195Z,2.54
2023-02-06T16:36:35.158Z,2.25
2023-02-06T16:38:33.207Z,2.09
2023-02-06T16:40:29.740Z,2.07
2023-02-06T16:42:27.296Z,2.01
2023-02-06T16:44:36.082Z,1.94
2023-02-06T16:46:38.276Z,1.85
2023-02-06T16:48:33.594Z,1.81
2023-02-06T16:50:34.711Z,1.79
2023-02-06T16:52:35.772Z,1.77
2023-02-06T16:54:32.895Z,1.73
2023-02-06T16:56:28.565Z,1.71
2023-02-06T16:58:30.263Z,1.69
2023-02-06T17:00:31.270Z,1.87
2023-02-06T17:02:26.602Z,1.78
2023-02-06T17:04:21.592Z,1.70
2023-02-06T17:06:23.592Z,1.64
2023-02-06T17:08:23.553Z,1.62
2023-02-06T17:10:21.804Z,1.54
2023-02-06T17:12:22.472Z,1.50
2023-02-06T17:14:18.919Z,1.51
2023-02-06T17:16:18.788Z,1.50
2023-02-06T17:18:16.517Z,1.85
2023-02-06T17:20:27.476Z,1.57
2023-02-06T17:22:30.980Z,1.46
2023-02-06T17:24:26.094Z,1.46
2023-02-06T17:26:24.155Z,1.43
2023-02-06T17:28:23.338Z,1.32
2023-02-06T17:30:21.761Z,1.34
2023-02-06T17:32:31.851Z,1.27
2023-02-06T17:34:33.364Z,1.24
2023-02-06T17:36:33.175Z,1.20
2023-02-06T17:38:47.557Z,1.18
2023-02-06T17:40:45.593Z,1.17
2023-02-06T17:42:44.167Z,1.12
2023-02-06T17:44:42.591Z,1.09
2023-02-06T17:46:40.490Z,1.08
2023-02-06T17:48:36.718Z,1.01
2023-02-06T17:50:34.659Z,1.01
2023-02-06T17:52:31.667Z,0.99
2023-02-06T17:54:31.239Z,0.99
2023-02-06T17:56:29.182Z,0.94
2023-02-06T17:58:24.713Z,0.93
2023-02-06T18:01:12.619Z,0.85
2023-02-06T18:03:54.071Z,0.86
2023-02-06T18:06:00.515Z,0.81
2023-02-06T18:07:56.211Z,0.78
2023-02-06T18:09:59.755Z,0.74
2023-02-06T18:11:55.804Z,0.75
2023-02-06T18:13:53.737Z,0.71
2023-02-06T18:16:08.103Z,0.70
2023-02-06T18:18:04.814Z,0.71
2023-02-06T18:20:00.282Z,0.78
2023-02-06T18:21:55.485Z,1.04
2023-02-06T18:23:54.389Z,0.88
2023-02-06T18:25:55.413Z,0.77
2023-02-06T18:27:53.771Z,0.73
2023-02-06T18:29:52.841Z,0.70
2023-02-06T18:31:50.097Z,0.64
2023-02-06T18:33:51.060Z,0.58
2023-02-06T18:35:50.722Z,0.57
2023-02-06T18:37:53.869Z,0.53
2023-02-06T18:39:58.175Z,0.49
2023-02-06T18:42:08.118Z,0.48
2023-02-06T18:44:03.922Z,0.50
2023-02-06T18:45:59.115Z,0.49
2023-02-06T18:47:55.586Z,0.46
2023-02-06T18:49:50.596Z,0.41
2023-02-06T18:51:45.787Z,0.39
2023-02-06T18:53:41.229Z,0.30
2023-02-06T18:55:37.323Z,0.25
2023-02-06T18:57:35.245Z,0.19
2023-02-06T18:59:30.283Z,0.13
2023-02-06T19:01:27.452Z,0.11
2023-02-06T19:03:22.575Z,0.09
2023-02-06T19:05:18.121Z,0.09
2023-02-06T19:07:13.742Z,0.07
2023-02-06T19:09:09.725Z,-0.03
2023-02-06T19:11:04.728Z,-0.09
2023-02-06T19:13:02.689Z,-0.17
2023-02-06T19:14:58.446Z,-0.24
2023-02-06T19:16:55.037Z,-0.22
2023-02-06T19:18:51.761Z,-0.18
2023-02-06T19:20:47.102Z,-0.12
2023-02-06T19:22:42.142Z,-0.09
2023-02-06T19:24:37.404Z,-0.08
2023-02-06T19:26:33.847Z,-0.12
2023-02-06T19:28:31.854Z,-0.18
2023-02-06T19:30:27.009Z,-0.18
2023-02-06T19:32:22.527Z,-0.24
2023-02-06T19:34:17.594Z,-0.23
2023-02-06T19:36:19.480Z,-0.27
2023-02-06T19:38:14.801Z,-0.28
2023-02-06T19:40:10.754Z,-0.28
2023-02-06T19:42:07.099Z,-0.27
2023-02-06T19:44:08.382Z,-0.31
2023-02-06T19:46:05.686Z,-0.31
2023-02-06T19:48:01.055Z,-0.35
2023-02-06T19:49:56.097Z,-0.36
2023-02-06T19:51:51.672Z,-0.40
2023-02-06T19:53:48.052Z,-0.41
2023-02-06T19:55:50.096Z,-0.41
2023-02-06T19:57:45.426Z,-0.43
2023-02-06T19:59:43.776Z,-0.47
2023-02-06T20:01:39.240Z,-0.54
2023-02-06T20:03:34.257Z,-0.60
2023-02-06T20:05:29.361Z,-0.63
2023-02-06T20:07:24.782Z,-0.64
2023-02-06T20:09:21.528Z,-0.68
2023-02-06T20:11:18.902Z,-0.68
2023-02-06T20:13:13.930Z,-0.62
2023-02-06T20:15:12.321Z,-0.59
2023-02-06T20:17:08.370Z,-0.53
2023-02-06T20:19:10.218Z,-0.50
2023-02-06T20:21:06.523Z,-0.49
2023-02-06T20:23:01.885Z,-0.48
2023-02-06T20:24:56.892Z,-0.53
2023-02-06T20:26:55.910Z,-0.53
2023-02-06T20:28:52.229Z,-0.58
2023-02-06T20:30:50.403Z,-0.61
2023-02-06T20:32:45.652Z,-0.64
2023-02-06T20:34:41.071Z,-0.68
2023-02-06T20:36:36.062Z,-0.67
2023-02-06T20:38:31.506Z,-0.62
2023-02-06T20:40:27.328Z,-0.66
2023-02-06T20:42:24.688Z,-0.67
2023-02-06T20:44:21.581Z,-0.70
2023-02-06T20:46:19.985Z,-0.74
2023-02-06T20:48:15.033Z,-0.71
2023-02-06T20:50:11.508Z,-0.78
2023-02-06T20:52:06.549Z,-0.78
2023-02-06T20:54:01.918Z,-0.84
2023-02-06T20:55:59.044Z,-0.89
2023-02-06T20:57:54.033Z,-0.89
2023-02-06T20:59:49.510Z,-0.92
2023-02-06T21:01:47.278Z,-0.92
2023-02-06T21:03:42.610Z,-0.93
2023-02-06T21:05:39.030Z,-0.94
2023-02-06T21:07:34.545Z,-0.91
2023-02-06T21:09:30.271Z,-0.92
2023-02-06T21:11:29.380Z,-0.93
2023-02-06T21:13:24.406Z,-0.94
2023-02-06T21:15:19.545Z,-0.94
2023-02-06T21:17:17.469Z,-0.97
2023-02-06T21:19:14.942Z,-1.06
2023-02-06T21:21:12.888Z,-1.10
2023-02-06T21:23:07.826Z,-1.11
2023-02-06T21:25:03.165Z,-1.16
2023-02-06T21:26:58.167Z,-1.23
2023-02-06T21:28:54.170Z,-1.23
2023-02-06T21:30:49.938Z,-1.25
2023-02-06T21:32:47.545Z,-1.29
2023-02-06T21:34:43.064Z,-1.29
2023-02-06T21:36:40.136Z,-1.24
2023-02-06T21:38:36.000Z,-1.28
2023-02-06T21:40:31.451Z,-1.31
2023-02-06T21:42:27.516Z,-1.30
2023-02-06T21:44:23.806Z,-1.26
2023-02-06T21:46:18.853Z,-1.30
2023-02-06T21:48:16.603Z,-1.32
2023-02-06T21:50:12.177Z,-1.31
2023-02-06T21:52:07.572Z,-1.33
2023-02-06T21:54:02.835Z,-1.33
2023-02-06T21:55:59.115Z,-1.32
2023-02-06T21:57:54.095Z,-1.37
2023-02-06T21:59:49.382Z,-1.44
2023-02-06T22:01:44.426Z,-1.47
2023-02-06T22:03:42.337Z,-1.44
2023-02-06T22:05:37.518Z,-1.43
2023-02-06T22:07:32.878Z,-1.49
2023-02-06T22:09:28.128Z,-1.53
2023-02-06T22:11:25.574Z,-1.52
2023-02-06T22:13:20.814Z,-1.50
2023-02-06T22:15:16.084Z,-1.55
2023-02-06T22:17:11.711Z,-1.54
2023-02-06T22:19:10.447Z,-1.59
2023-02-06T22:21:08.255Z,-1.54
2023-02-06T22:23:03.480Z,-1.50
2023-02-06T22:24:59.074Z,-1.54
2023-02-06T22:26:54.286Z,-1.55
2023-02-06T22:28:50.301Z,-1.57
2023-02-06T22:30:45.526Z,-1.59
2023-02-06T22:32:41.350Z,-1.58
2023-02-06T22:34:39.572Z,-1.58
2023-02-06T22:36:35.890Z,-1.62
2023-02-06T22:38:31.584Z,-1.58
2023-02-06T22:40:26.823Z,-1.61
2023-02-06T22:42:22.463Z,-1.60
2023-02-06T22:44:19.026Z,-1.60
2023-02-06T22:46:20.896Z,-1.63
2023-02-06T22:48:15.876Z,-1.65
2023-02-06T22:50:13.562Z,-1.65
2023-02-06T22:52:29.249Z,-1.67
2023-02-06T22:54:21.621Z,-1.69
2023-02-06T22:56:31.414Z,-1.70
2023-02-06T22:58:26.668Z,-1.70
2023-02-06T23:00:21.727Z,-1.75
2023-02-06T23:02:17.202Z,-1.74
2023-02-06T23:04:16.158Z,-1.76
2023-02-06T23:06:17.569Z,-1.78
2023-02-06T23:17:54.130Z,-1.91
2023-02-06T23:19:49.653Z,-1.96
2023-02-06T23:21:49.225Z,-2.04
2023-02-06T23:23:45.630Z,-2.06
2023-02-06T23:25:46.290Z,-2.01
2023-02-06T23:27:41.574Z,-2.03
2023-02-06T23:29:36.521Z,-2.07
2023-02-06T23:31:32.143Z,-2.11
2023-02-06T23:33:27.098Z,-2.19
2023-02-06T23:35:21.982Z,-2.20
2023-02-06T23:37:19.890Z,-2.20
2023-02-06T23:39:14.977Z,-2.23
2023-02-06T23:41:11.622Z,-2.24
2023-02-06T23:43:08.625Z,-2.20
2023-02-06T23:45:04.220Z,-2.21
2023-02-06T23:46:59.341Z,-2.21
2023-02-06T23:48:55.163Z,-2.26
2023-02-06T23:50:50.125Z,-2.30
2023-02-06T23:52:47.707Z,-2.36
2023-02-06T23:54:43.070Z,-2.38
2023-02-06T23:56:38.288Z,-2.40
2023-02-06T23:58:33.625Z,-2.37
